RKSO/OSN METAR and TAF weather

Enter ICAO airport designator
Station Type Date Time Source
RKSO METAR 2019/04/26 02:58 UTC NOAA

RKSO 260258Z 00000KT 7SM BKN016 OVC020 11/07 A2989 RMK AO2A SLP125 T01070073 50006


Station Type Date Time Source
RKSO Decoded METAR 2019/04/26 02:58 UTC NOAA

Osan Ab, Korea, South (RKSO) 37-06N 127-02E 12M
Apr 25, 2019 - 10:58 PM EDT / 2019.04.26 0258 UTC
Wind: Calm:0
Visibility: 7 mile(s):0
Sky conditions: overcast
Temperature: 51.3 F (10.7 C)
Dew Point: 45.1 F (7.3 C)
Relative Humidity: 79%
Pressure (altimeter): 29.89 in. Hg (1012 hPa)
Pressure tendency: 0.02 inches (0.6 hPa) higher than three hours ago
ob: RKSO 260258Z 00000KT 7SM BKN016 OVC020 11/07 A2989 RMK AO2A SLP125 T01070073 50006
cycle: 3

Station Type Date Time Source
RKSO TAF 2019/04/26 03:15 UTC NOAA

TAF TAF RKSO 260300Z 2603/2709 VRB06KT 9999 BKN015 QNH2987INS
TEMPO 2603/2606 BKN020
BECMG 2606/2608 01010G15KT 9999 BKN020 600504 QNH2989INS
BECMG 2610/2612 VRB06KT 9000 BR SCT020 QNH2999INS
TEMPO 2618/2621 4800 BR TX15/2606Z TN06/2621Z

Example: see airport list